AirNav   Get a free Bose Revolve speaker with A20 purchase
 
 1170 users online  

12A Arkavalley Airport
Greenbrier, Arkansas, USA

GOING TO GREENBRIER?


FAA INFORMATION EFFECTIVE 19 JULY 2018

Location

FAA Identifier: 12A
Lat/Long: 35-10-39.1066N / 092-20-06.2411W
35-10.651777N / 092-20.104018W
35.1775296 / -92.3350670
(estimated)
Elevation: 329 ft. / 100 m (estimated)
Variation: 02E (2000)
From city: 5 miles SE of GREENBRIER, AR
Time zone: UTC -5 (UTC -6 during Standard Time)
Zip code: 72058

Airport Operations

Airport use: Open to the public
Activation date: 06/2002
Control tower: no
ARTCC: MEMPHIS CENTER
FSS: JONESBORO FLIGHT SERVICE STATION
NOTAMs facility: JBR (NOTAM-D service available)
Attendance: UNATNDD
Wind indicator: yes
Segmented circle: no
Lights: ACTVT MIRL RY 18/36 - CTAF.

Airport Communications

CTAF/UNICOM: 122.8
WX AWOS-2 at CXW (14 nm SW): 118.775 (501-358-6209)

Nearby radio navigation aids

VOR radial/distance  VOR name  Freq  Var
LITr341/30.9LITTLE ROCK VORTAC113.9005E

 
NDB name  Hdg/Dist  Freq  Var  ID
TONEYVILLE310/20.629001ETYV - -.-- ...-
RUSSELLVILLE094/37.537903ERUE .-. ..- .

Airport Services

Runway Information

Runway 18/36

Dimensions: 3133 x 40 ft. / 955 x 12 m
Surface: asphalt, in good condition
Runway edge lights: medium intensity
RUNWAY 18  RUNWAY 36
Latitude: 35-10.909998N35-10.393555N
Longitude: 092-20.097617W092-20.110402W
Traffic pattern: leftleft
Runway heading: 179 magnetic, 181 true359 magnetic, 001 true
Markings: basic, in good conditionbasic, in good condition
Obstructions: 70 ft. tree, 240 ft. from runway, 95 ft. right of centerlinenone
4 FT FENCE 100 FT FM THLD 50 FT L&R.

Airport Ownership and Management from official FAA records

Ownership: Privately-owned
Owner: JIM HAWKS
52 CESSNA AVENUE
GREENBRIAR, AR 72058
Phone (501) 514-0204
Manager: BILL HOOTEN
52 CESSNA AVE
GREENBRIAR, AR 72058
Phone 501-514-0204

Airport Operational Statistics

Aircraft based on the field: 13
Single engine airplanes: 12
Multi engine airplanes: 1
    
Aircraft operations: avg 25/week *
77% local general aviation
15% transient general aviation
8% military
* for 12-month period ending 31 July 2016

Additional Remarks

RISING TERRAIN NORTH END.

Instrument Procedures

There are no published instrument procedures at 12A.

Some nearby airports with instrument procedures:

KCXW - Cantrell Field Airport (14 nm SW)
KLRF - Little Rock Air Force Base (18 nm SE)
KBDQ - Morrilton Municipal Airport (19 nm W)
KORK - North Little Rock Municipal Airport (21 nm S)
KHBZ - Heber Springs Municipal Airport (26 nm NE)
 
Loc | Ops | Rwys | IFR | FBO | Links
Com | Nav | Svcs | Stats | Notes


 
Area around 12A (Arkavalley Airport)
 
Road maps at: MapQuest Bing Google
 
Aerial photo
WARNING: Photo may not be current or correct
Aerial photo of 12A (Arkavalley Airport)
Photo courtesy of the Arkansas Department of Aeronautics
Taken in the Spring of 2007

Do you have a better or more recent aerial photo of Arkavalley Airport that you would like to share? If so, please send us your photo.

 
Sectional chart

 
Airport distance calculator
Flying to Arkavalley Airport? Find the distance to fly.

From to 12A

Sunrise and sunset
Times for 22-Jul-2018
 Local
(UTC-5)
 Zulu
(UTC)
Morning civil twilight05:4310:43
Sunrise06:1211:12
Sunset20:2001:20
Evening civil twilight20:4801:48

Current date and time
Zulu (UTC)  22-Jul-2018 17:52:32
Local (UTC-5)  22-Jul-2018 12:52:32
 
METAR
KCXW 
14nm SW 
221735Z AUTO 36006KT 9SM CLR 33/20 A2990 RMK A01
KLRF 
18nm SE 
221656Z 33004KT 10SM FEW250 31/21 A2990 RMK AO2A SLP124 T03060205 CHINO RWY07 $
KCCA 
26nm N 
221735Z AUTO VRB06KT 9SM CLR 33/18 A2991 RMK AO2
KLIT 
27nm S 
221653Z 02005KT 10SM FEW040 SCT250 32/19 A2990 RMK AO2 SLP125 T03170194 $
TAF
KLRF 
18nm SE 
221500Z 2215/2321 VRB06KT 9999 FEW200 QNH2984INS TEMPO 2219/2301 32010G15KT BECMG 2319/2320 01010G15KT 9999 FEW055 QNH2989INS TX33/2221Z TN22/2311Z
NOTAMs
Click for the latest NOTAMs
NOTAMs are issued by the DoD/FAA and will open in a separate window not controlled by AirNav.

 

 
 

Would you like to see your business listed on this page?

 If your business provides an interesting product or service to pilots, flight crews, aircraft, or users of the Arkavalley Airport, you should consider listing it here.  To start the listing process, click on the button below
 
Add a business
 

Other Pages about Arkavalley Airport

Update a link
 
Copyright © AirNav, LLC. All rights reserved. Privacy Policy  Contact